createdAt,value
2022-09-02T00:01:33.156Z,19.40
2022-09-02T00:04:03.869Z,19.40
2022-09-02T00:06:31.532Z,19.40
2022-09-02T00:08:59.946Z,19.40
2022-09-02T00:11:29.282Z,19.30
2022-09-02T00:13:57.131Z,19.30
2022-09-02T00:16:25.239Z,19.30
2022-09-02T00:18:52.725Z,19.30
2022-09-02T00:21:21.030Z,19.30
2022-09-02T00:23:48.635Z,19.30
2022-09-02T00:26:15.509Z,19.20
2022-09-02T00:28:44.308Z,19.20
2022-09-02T00:31:17.947Z,19.20
2022-09-02T00:33:44.915Z,19.20
2022-09-02T00:36:12.451Z,19.10
2022-09-02T00:38:39.867Z,19.10
2022-09-02T00:41:09.278Z,19.10
2022-09-02T00:44:07.714Z,19.10
2022-09-02T00:46:35.246Z,19.00
2022-09-02T00:49:13.518Z,19.00
2022-09-02T00:51:47.929Z,19.00
2022-09-02T00:54:16.417Z,18.90
2022-09-02T00:56:46.169Z,18.90
2022-09-02T00:59:20.749Z,18.90
2022-09-02T01:01:47.797Z,18.90
2022-09-02T01:04:16.278Z,18.90
2022-09-02T01:06:44.011Z,18.80
2022-09-02T01:09:14.779Z,18.80
2022-09-02T01:11:52.672Z,18.80
2022-09-02T01:14:19.725Z,18.80
2022-09-02T01:16:50.119Z,18.70
2022-09-02T01:19:26.798Z,18.70
2022-09-02T01:21:55.713Z,18.70
2022-09-02T01:24:25.611Z,18.70
2022-09-02T01:26:54.906Z,18.60
2022-09-02T01:29:22.911Z,18.60
2022-09-02T01:31:50.259Z,18.60
2022-09-02T01:34:17.325Z,18.60
2022-09-02T01:36:45.214Z,18.50
2022-09-02T01:39:13.450Z,18.50
2022-09-02T01:41:40.697Z,18.50
2022-09-02T01:44:08.303Z,18.40
2022-09-02T01:46:36.666Z,18.40
2022-09-02T01:49:04.308Z,18.40
2022-09-02T01:51:31.379Z,18.30
2022-09-02T01:53:58.295Z,18.30
2022-09-02T01:56:25.019Z,18.30
2022-09-02T01:58:51.828Z,18.30
2022-09-02T02:01:19.872Z,18.20
2022-09-02T02:03:47.319Z,18.20
2022-09-02T02:06:17.510Z,18.20
2022-09-02T02:08:45.364Z,18.20
2022-09-02T02:11:18.718Z,18.10
2022-09-02T02:13:45.503Z,18.10
2022-09-02T02:16:12.344Z,18.00
2022-09-02T02:18:39.165Z,18.00
2022-09-02T02:21:06.150Z,18.00
2022-09-02T02:23:33.555Z,17.90
2022-09-02T02:26:00.536Z,17.90
2022-09-02T02:28:27.270Z,17.90
2022-09-02T02:30:54.083Z,17.90
2022-09-02T02:33:20.891Z,17.90
2022-09-02T02:35:52.954Z,17.90
2022-09-02T02:38:22.935Z,17.80
2022-09-02T02:40:50.188Z,17.80
2022-09-02T02:43:17.147Z,17.80
2022-09-02T02:45:44.267Z,17.80
2022-09-02T02:48:11.150Z,17.70
2022-09-02T02:50:37.978Z,17.70
2022-09-02T02:53:04.780Z,17.70
2022-09-02T02:55:31.537Z,17.70
2022-09-02T02:57:58.309Z,17.70
2022-09-02T03:00:28.632Z,17.70
2022-09-02T03:03:01.209Z,17.60
2022-09-02T03:05:29.290Z,17.60
2022-09-02T03:07:56.705Z,17.60
2022-09-02T03:10:24.217Z,17.60
2022-09-02T03:12:51.414Z,17.60
2022-09-02T03:15:19.421Z,17.60
2022-09-02T03:17:47.845Z,17.50
2022-09-02T03:20:18.782Z,17.60
2022-09-02T03:22:47.720Z,17.50
2022-09-02T03:25:17.407Z,17.50
2022-09-02T03:27:47.403Z,17.50
2022-09-02T03:30:22.089Z,17.50
2022-09-02T03:32:49.175Z,17.50
2022-09-02T03:35:18.732Z,17.50
2022-09-02T03:37:46.388Z,17.50
2022-09-02T03:40:22.720Z,17.50
2022-09-02T03:42:50.756Z,17.50
2022-09-02T03:45:18.097Z,17.50
2022-09-02T03:47:54.174Z,17.50
2022-09-02T03:50:31.314Z,17.50
2022-09-02T03:52:59.153Z,17.40
2022-09-02T03:55:26.887Z,17.40
2022-09-02T03:57:54.406Z,17.40
2022-09-02T04:00:24.724Z,17.40
2022-09-02T04:02:52.815Z,17.30
2022-09-02T04:05:19.826Z,17.30
2022-09-02T04:07:47.108Z,17.30
2022-09-02T04:10:14.935Z,17.30
2022-09-02T04:12:41.778Z,17.30
2022-09-02T04:15:11.193Z,17.30
2022-09-02T04:18:34.075Z,17.20
2022-09-02T04:21:19.738Z,17.20
2022-09-02T04:23:47.299Z,17.20
2022-09-02T04:26:17.157Z,17.20
2022-09-02T04:28:44.012Z,17.20
2022-09-02T04:31:13.225Z,17.20
2022-09-02T04:33:40.307Z,17.10
2022-09-02T04:36:09.666Z,17.20
2022-09-02T04:38:39.827Z,17.10
2022-09-02T04:41:15.293Z,17.10
2022-09-02T04:43:42.227Z,17.10
2022-09-02T04:46:12.696Z,17.10
2022-09-02T04:48:40.480Z,17.00
2022-09-02T04:51:10.673Z,17.00
2022-09-02T04:53:37.383Z,17.00
2022-09-02T04:56:09.004Z,17.00
2022-09-02T04:58:36.933Z,17.00
2022-09-02T05:01:14.153Z,16.90
2022-09-02T05:03:45.045Z,16.90
2022-09-02T05:06:14.216Z,16.90
2022-09-02T05:08:43.877Z,16.90
2022-09-02T05:11:13.451Z,16.90
2022-09-02T05:13:41.501Z,16.90
2022-09-02T05:16:08.497Z,16.80
2022-09-02T05:18:35.429Z,16.80
2022-09-02T05:21:06.462Z,16.80
2022-09-02T05:23:34.739Z,16.80
2022-09-02T05:26:09.117Z,16.80
2022-09-02T05:28:36.473Z,16.80
2022-09-02T05:31:05.824Z,16.80
2022-09-02T05:33:33.733Z,16.80
2022-09-02T05:36:02.355Z,16.80
2022-09-02T05:38:29.134Z,16.80
2022-09-02T05:40:56.077Z,16.80
2022-09-02T05:43:23.318Z,16.90
2022-09-02T05:45:50.223Z,16.90
2022-09-02T05:48:35.487Z,16.90
2022-09-02T05:51:06.282Z,16.90
2022-09-02T05:53:33.491Z,17.00
2022-09-02T05:56:05.015Z,17.00
2022-09-02T05:58:32.236Z,17.00
2022-09-02T06:00:59.190Z,17.00
2022-09-02T06:03:25.936Z,17.10
2022-09-02T06:06:04.354Z,17.10
2022-09-02T06:08:34.697Z,17.20
2022-09-02T06:11:02.362Z,17.20
2022-09-02T06:13:30.618Z,17.20
2022-09-02T06:15:58.024Z,17.20
2022-09-02T06:18:25.128Z,17.30
2022-09-02T06:20:53.671Z,17.40
2022-09-02T06:23:20.590Z,17.40
2022-09-02T06:25:49.397Z,17.50
2022-09-02T06:28:16.903Z,17.50
2022-09-02T06:30:45.618Z,17.50
2022-09-02T06:33:12.560Z,17.60
2022-09-02T06:35:43.962Z,17.70
2022-09-02T06:38:14.239Z,17.70
2022-09-02T06:40:52.576Z,17.80
2022-09-02T06:43:19.339Z,17.80
2022-09-02T06:45:46.226Z,17.90
2022-09-02T06:48:13.726Z,17.90
2022-09-02T06:50:45.942Z,18.00
2022-09-02T06:53:13.319Z,18.00
2022-09-02T06:55:43.434Z,18.10
2022-09-02T06:58:11.132Z,18.10
2022-09-02T07:00:39.509Z,18.20
2022-09-02T07:03:26.593Z,18.20
2022-09-02T07:06:03.755Z,18.30
2022-09-02T07:08:31.046Z,18.30
2022-09-02T07:10:57.895Z,18.40
2022-09-02T07:13:24.671Z,18.40
2022-09-02T07:15:51.601Z,18.40
2022-09-02T07:18:18.432Z,18.50
2022-09-02T07:20:46.862Z,18.50
2022-09-02T07:23:14.339Z,18.60
2022-09-02T07:25:42.462Z,18.60
2022-09-02T07:28:10.522Z,18.60
2022-09-02T07:30:40.412Z,18.60
2022-09-02T07:33:07.331Z,18.70
2022-09-02T07:35:35.550Z,18.70
2022-09-02T07:38:04.363Z,18.80
2022-09-02T07:40:31.424Z,18.80
2022-09-02T07:42:58.233Z,18.80
2022-09-02T07:45:25.268Z,18.90
2022-09-02T07:47:52.116Z,18.90
2022-09-02T07:50:21.764Z,19.00
2022-09-02T07:52:50.511Z,19.00
2022-09-02T07:55:17.390Z,19.10
2022-09-02T07:57:44.163Z,19.10
2022-09-02T08:00:13.669Z,19.10
2022-09-02T08:02:40.597Z,19.20
2022-09-02T08:05:08.010Z,19.20
2022-09-02T08:07:34.830Z,19.30
2022-09-02T08:10:01.863Z,19.30
2022-09-02T08:12:28.871Z,19.40
2022-09-02T08:14:58.691Z,19.50
2022-09-02T08:17:25.753Z,19.50
2022-09-02T08:19:52.637Z,19.60
2022-09-02T08:22:19.451Z,19.60
2022-09-02T08:24:46.257Z,19.70
2022-09-02T08:27:13.468Z,19.80
2022-09-02T08:29:40.441Z,19.80
2022-09-02T08:32:07.343Z,19.80
2022-09-02T08:34:34.256Z,19.90
2022-09-02T08:37:01.138Z,20.00
2022-09-02T08:39:28.062Z,20.00
2022-09-02T08:42:13.755Z,20.10
2022-09-02T08:44:41.234Z,20.10
2022-09-02T08:47:16.234Z,20.20
2022-09-02T08:49:49.189Z,20.30
2022-09-02T08:52:46.075Z,20.40
2022-09-02T08:55:20.051Z,20.50
2022-09-02T08:57:46.997Z,20.60
2022-09-02T09:00:14.377Z,20.70
2022-09-02T09:03:02.188Z,20.70
2022-09-02T09:05:39.845Z,20.80
2022-09-02T09:08:55.894Z,20.90
2022-09-02T09:11:25.394Z,20.90
2022-09-02T09:14:06.620Z,21.00
2022-09-02T09:17:20.512Z,21.00
2022-09-02T09:19:54.015Z,21.10
2022-09-02T09:22:33.578Z,21.20
2022-09-02T09:25:00.724Z,21.30
2022-09-02T09:27:28.275Z,21.40
2022-09-02T09:29:55.021Z,21.50
2022-09-02T09:32:49.508Z,21.50
2022-09-02T09:35:18.315Z,21.60
2022-09-02T09:37:52.789Z,21.70
2022-09-02T09:40:23.065Z,21.70
2022-09-02T09:43:05.923Z,21.70
2022-09-02T09:45:47.353Z,21.80
2022-09-02T09:48:23.613Z,21.90
2022-09-02T09:50:56.664Z,21.90
2022-09-02T09:53:29.985Z,22.00
2022-09-02T09:55:57.982Z,22.00
2022-09-02T09:58:30.785Z,22.10
2022-09-02T10:01:00.707Z,22.10
2022-09-02T10:03:32.970Z,22.10
2022-09-02T10:06:19.554Z,22.20
2022-09-02T10:08:58.723Z,22.30
2022-09-02T10:11:37.025Z,22.30
2022-09-02T10:14:10.299Z,22.40
2022-09-02T10:17:07.823Z,22.40
2022-09-02T10:20:04.634Z,22.50
2022-09-02T10:22:59.495Z,22.60
2022-09-02T10:26:05.375Z,22.70
2022-09-02T10:29:09.508Z,22.80
2022-09-02T10:31:41.322Z,22.90
2022-09-02T10:34:15.906Z,23.00
2022-09-02T10:37:01.456Z,23.10
2022-09-02T10:39:52.462Z,23.30
2022-09-02T10:42:19.895Z,23.40
2022-09-02T10:45:10.406Z,23.50
2022-09-02T10:47:40.230Z,23.60
2022-09-02T10:50:23.957Z,23.70
2022-09-02T10:53:05.865Z,23.90
2022-09-02T10:55:45.364Z,24.10
2022-09-02T10:58:38.298Z,24.20
2022-09-02T11:01:10.667Z,24.40
2022-09-02T11:04:10.008Z,24.60
2022-09-02T11:07:02.932Z,24.70
2022-09-02T11:09:39.283Z,24.70
2022-09-02T11:12:35.463Z,24.90
2022-09-02T11:15:07.481Z,25.10
2022-09-02T11:17:53.549Z,25.20
2022-09-02T11:20:42.775Z,25.20
2022-09-02T11:23:30.818Z,25.30
2022-09-02T11:26:05.264Z,25.40
2022-09-02T11:29:04.310Z,25.50
2022-09-02T11:31:56.753Z,25.70
2022-09-02T11:34:40.361Z,25.80
2022-09-02T11:37:24.363Z,25.90
2022-09-02T11:40:17.237Z,26.00
2022-09-02T11:42:59.904Z,26.10
2022-09-02T11:45:57.180Z,26.20
2022-09-02T11:48:36.411Z,26.30
2022-09-02T11:51:26.774Z,26.20
2022-09-02T11:53:56.265Z,26.20
2022-09-02T11:56:31.438Z,26.10
2022-09-02T11:58:58.329Z,26.10
2022-09-02T12:01:37.362Z,26.10
2022-09-02T12:04:56.180Z,26.20
2022-09-02T12:07:10.218Z,26.30
2022-09-02T12:09:50.586Z,26.30
2022-09-02T12:12:38.296Z,26.30
2022-09-02T12:15:05.375Z,26.50
2022-09-02T12:17:37.797Z,26.60
2022-09-02T12:20:11.289Z,26.80
2022-09-02T12:22:41.994Z,27.00
2022-09-02T12:25:28.446Z,27.10
2022-09-02T12:28:18.925Z,27.30
2022-09-02T12:31:01.654Z,27.50
2022-09-02T12:33:36.292Z,27.60
2022-09-02T12:36:05.122Z,27.80
2022-09-02T12:38:42.868Z,28.00
2022-09-02T12:41:22.097Z,28.10
2022-09-02T12:44:11.404Z,28.20
2022-09-02T12:46:43.863Z,28.30
2022-09-02T12:49:23.811Z,28.50
2022-09-02T12:52:02.658Z,28.50
2022-09-02T12:54:38.179Z,28.60
2022-09-02T12:57:07.119Z,28.70
2022-09-02T12:59:39.124Z,28.80
2022-09-02T13:02:30.366Z,28.80
2022-09-02T13:05:22.334Z,28.90
2022-09-02T13:07:49.021Z,29.00
2022-09-02T13:10:57.472Z,29.30
2022-09-02T13:13:42.979Z,29.50
2022-09-02T13:16:15.594Z,29.70
2022-09-02T13:19:13.120Z,29.70
2022-09-02T13:22:05.437Z,29.60
2022-09-02T13:25:02.914Z,29.60
2022-09-02T13:27:41.507Z,29.50
2022-09-02T13:31:00.535Z,29.50
2022-09-02T13:33:27.985Z,29.40
2022-09-02T13:35:58.609Z,29.50
2022-09-02T13:38:28.567Z,29.60
2022-09-02T13:40:55.453Z,29.50
2022-09-02T13:43:26.185Z,29.60
2022-09-02T13:45:55.679Z,29.70
2022-09-02T13:48:28.158Z,29.80
2022-09-02T13:51:06.564Z,29.80
2022-09-02T13:53:45.483Z,29.90
2022-09-02T13:56:30.872Z,29.90
2022-09-02T13:58:57.835Z,30.00
2022-09-02T14:01:29.050Z,30.10
2022-09-02T14:06:38.461Z,30.10
2022-09-02T14:09:10.604Z,30.10
2022-09-02T14:11:46.268Z,30.20
2022-09-02T14:14:15.313Z,30.10
2022-09-02T14:16:42.233Z,30.00
2022-09-02T14:19:10.824Z,30.00
2022-09-02T14:21:48.410Z,30.10
2022-09-02T14:24:19.506Z,30.10
2022-09-02T14:26:48.042Z,30.20
2022-09-02T14:29:17.392Z,30.20
2022-09-02T14:31:44.747Z,30.20
2022-09-02T14:34:33.964Z,30.30
2022-09-02T14:37:01.272Z,30.30
2022-09-02T14:39:28.082Z,30.20
2022-09-02T14:41:56.268Z,30.20
2022-09-02T14:44:33.990Z,30.30
2022-09-02T14:47:04.519Z,30.30
2022-09-02T14:49:45.148Z,30.20
2022-09-02T14:52:27.888Z,30.20
2022-09-02T14:54:56.713Z,30.20
2022-09-02T14:57:27.980Z,30.10
2022-09-02T14:59:56.523Z,30.10
2022-09-02T15:02:34.731Z,30.00
2022-09-02T15:05:07.851Z,30.00
2022-09-02T15:07:34.867Z,29.90
2022-09-02T15:10:01.917Z,29.80
2022-09-02T15:12:33.927Z,29.90
2022-09-02T15:15:01.312Z,30.00
2022-09-02T15:17:29.492Z,29.80
2022-09-02T15:19:56.583Z,29.80
2022-09-02T15:22:24.077Z,29.90
2022-09-02T15:24:52.114Z,29.90
2022-09-02T15:27:21.641Z,29.90
2022-09-02T15:29:49.040Z,29.90
2022-09-02T15:32:16.064Z,29.70
2022-09-02T15:34:42.871Z,29.60
2022-09-02T15:37:12.786Z,29.60
2022-09-02T15:39:40.284Z,29.50
2022-09-02T15:42:07.177Z,29.50
2022-09-02T15:44:33.910Z,29.40
2022-09-02T15:47:00.644Z,29.40
2022-09-02T15:49:27.604Z,29.30
2022-09-02T15:51:55.232Z,29.20
2022-09-02T15:54:23.902Z,29.00
2022-09-02T15:56:56.523Z,28.90
2022-09-02T15:59:23.386Z,28.70
2022-09-02T16:01:52.825Z,28.50
2022-09-02T16:04:19.714Z,28.30
2022-09-02T16:06:49.766Z,28.20
2022-09-02T16:09:17.877Z,28.10
2022-09-02T16:11:47.546Z,27.90
2022-09-02T16:14:15.036Z,27.80
2022-09-02T16:16:48.240Z,27.60
2022-09-02T16:19:15.094Z,27.50
2022-09-02T16:21:41.851Z,27.40
2022-09-02T16:24:09.450Z,27.20
2022-09-02T16:26:40.946Z,27.10
2022-09-02T16:29:16.556Z,27.10
2022-09-02T16:32:01.772Z,26.90
2022-09-02T16:34:33.164Z,26.80
2022-09-02T16:37:00.704Z,26.70
2022-09-02T16:39:27.451Z,26.60
2022-09-02T16:41:54.474Z,26.60
2022-09-02T16:44:23.145Z,26.50
2022-09-02T16:46:51.960Z,26.40
2022-09-02T16:49:20.754Z,26.30
2022-09-02T16:51:49.356Z,26.30
2022-09-02T16:54:21.063Z,26.20
2022-09-02T16:56:48.631Z,26.20
2022-09-02T16:59:15.598Z,26.10
2022-09-02T17:01:42.694Z,26.10
2022-09-02T17:04:09.495Z,26.00
2022-09-02T17:06:41.916Z,25.90
2022-09-02T17:09:09.150Z,25.90
2022-09-02T17:11:39.810Z,25.80
2022-09-02T17:14:10.040Z,25.80
2022-09-02T17:16:39.993Z,25.80
2022-09-02T17:19:07.660Z,25.70
2022-09-02T17:21:38.130Z,25.70
2022-09-02T17:24:06.763Z,25.60
2022-09-02T17:26:36.037Z,25.60
2022-09-02T17:29:47.004Z,25.60
2022-09-02T17:32:04.863Z,25.50
2022-09-02T17:34:33.618Z,25.50
2022-09-02T17:37:00.415Z,25.40
2022-09-02T17:39:27.268Z,25.40
2022-09-02T17:42:00.163Z,25.40
2022-09-02T17:44:35.705Z,25.30
2022-09-02T17:47:05.997Z,25.30
2022-09-02T17:49:36.244Z,25.20
2022-09-02T17:52:07.923Z,25.20
2022-09-02T17:54:38.003Z,25.20
2022-09-02T17:57:41.777Z,25.10
2022-09-02T18:00:11.790Z,25.10
2022-09-02T18:02:55.650Z,25.10
2022-09-02T18:05:37.070Z,25.00
2022-09-02T18:08:18.830Z,24.90
2022-09-02T18:10:58.080Z,24.90
2022-09-02T18:13:40.082Z,24.80
2022-09-02T18:16:23.861Z,24.80
2022-09-02T18:19:29.118Z,24.80
2022-09-02T18:22:11.268Z,24.70
2022-09-02T18:24:50.439Z,24.70
2022-09-02T18:27:38.849Z,24.70
2022-09-02T18:30:08.578Z,24.70
2022-09-02T18:32:55.220Z,24.60
2022-09-02T18:35:22.068Z,24.60
2022-09-02T18:38:28.569Z,24.50
2022-09-02T18:40:55.333Z,24.50
2022-09-02T18:43:34.787Z,24.50
2022-09-02T18:46:03.127Z,24.40
2022-09-02T18:48:36.544Z,24.40
2022-09-02T18:51:10.273Z,24.40
2022-09-02T18:53:49.347Z,24.30
2022-09-02T18:56:17.931Z,24.30
2022-09-02T18:58:49.101Z,24.30
2022-09-02T19:01:24.908Z,24.30
2022-09-02T19:03:52.239Z,24.20
2022-09-02T19:06:25.267Z,24.20
2022-09-02T19:08:59.557Z,24.20
2022-09-02T19:11:27.325Z,24.10
2022-09-02T19:13:56.950Z,24.10
2022-09-02T19:16:27.775Z,24.10
2022-09-02T19:18:55.272Z,24.00
2022-09-02T19:21:36.797Z,24.00
2022-09-02T19:24:12.607Z,23.90
2022-09-02T19:26:41.605Z,23.90
2022-09-02T19:29:11.137Z,23.90
2022-09-02T19:31:40.954Z,23.90
2022-09-02T19:34:08.480Z,23.90
2022-09-02T19:36:39.040Z,23.90
2022-09-02T19:39:05.825Z,23.80
2022-09-02T19:41:33.162Z,23.80
2022-09-02T19:44:00.189Z,23.80
2022-09-02T19:47:11.904Z,23.70
2022-09-02T19:49:14.303Z,23.70
2022-09-02T19:51:41.610Z,23.70
2022-09-02T19:54:08.635Z,23.70
2022-09-02T19:56:36.329Z,23.60
2022-09-02T19:59:03.370Z,23.70
2022-09-02T20:01:30.165Z,23.60
2022-09-02T20:03:57.250Z,23.60
2022-09-02T20:06:24.057Z,23.60
2022-09-02T20:08:51.695Z,23.50
2022-09-02T20:11:18.772Z,23.50
2022-09-02T20:13:45.551Z,23.50
2022-09-02T20:16:20.472Z,23.50
2022-09-02T20:18:50.111Z,23.50
2022-09-02T20:21:29.599Z,23.40
2022-09-02T20:24:07.032Z,23.40
2022-09-02T20:26:53.329Z,23.40
2022-09-02T20:29:25.975Z,23.40
2022-09-02T20:32:23.423Z,23.30
2022-09-02T20:34:56.540Z,23.30
2022-09-02T20:37:41.643Z,23.30
2022-09-02T20:40:33.516Z,23.20
2022-09-02T20:43:32.482Z,23.20
2022-09-02T20:46:13.659Z,23.20
2022-09-02T20:49:05.154Z,23.20
2022-09-02T20:51:46.656Z,23.20
2022-09-02T20:54:41.399Z,23.10
2022-09-02T20:57:38.587Z,23.10
2022-09-02T21:00:19.204Z,23.00
2022-09-02T21:03:05.312Z,23.00
2022-09-02T21:05:40.802Z,23.00
2022-09-02T21:08:24.745Z,22.90
2022-09-02T21:10:59.137Z,22.90
2022-09-02T21:13:44.272Z,22.90
2022-09-02T21:16:23.326Z,22.90
2022-09-02T21:19:29.095Z,22.80
2022-09-02T21:21:59.986Z,22.80
2022-09-02T21:24:48.710Z,22.80
2022-09-02T21:27:22.880Z,22.80
2022-09-02T21:30:02.268Z,22.80
2022-09-02T21:32:36.826Z,22.70
2022-09-02T21:35:17.277Z,22.70
2022-09-02T21:37:45.745Z,22.70
2022-09-02T21:40:18.849Z,22.70
2022-09-02T21:43:24.950Z,22.70
2022-09-02T21:45:51.710Z,22.60
2022-09-02T21:48:34.406Z,22.60
2022-09-02T21:51:09.340Z,22.60
2022-09-02T21:53:55.935Z,22.60
2022-09-02T21:57:10.822Z,22.60
2022-09-02T21:59:43.565Z,22.50
2022-09-02T22:02:25.753Z,22.50
2022-09-02T22:05:24.957Z,22.40
2022-09-02T22:07:57.721Z,22.40
2022-09-02T22:10:31.246Z,22.30
2022-09-02T22:13:01.184Z,22.30
2022-09-02T22:15:56.563Z,22.30
2022-09-02T22:18:49.110Z,22.30
2022-09-02T22:21:21.378Z,22.20
2022-09-02T22:23:49.321Z,22.20
2022-09-02T22:26:37.635Z,22.20
2022-09-02T22:29:17.303Z,22.10
2022-09-02T22:31:45.850Z,22.20
2022-09-02T22:34:16.191Z,22.10
2022-09-02T22:37:07.862Z,22.00
2022-09-02T22:39:50.011Z,22.00
2022-09-02T22:42:37.803Z,22.00
2022-09-02T22:45:44.333Z,22.00
2022-09-02T22:48:35.496Z,21.90
2022-09-02T22:51:28.195Z,21.90
2022-09-02T22:53:54.957Z,21.90
2022-09-02T22:56:41.870Z,21.80
2022-09-02T22:59:24.220Z,21.80
2022-09-02T23:01:57.790Z,21.80
2022-09-02T23:04:36.234Z,21.80
2022-09-02T23:07:05.297Z,21.70
2022-09-02T23:09:34.437Z,21.70
2022-09-02T23:12:26.841Z,21.60
2022-09-02T23:15:04.208Z,21.60
2022-09-02T23:18:12.710Z,21.60
2022-09-02T23:20:56.810Z,21.50
2022-09-02T23:23:36.649Z,21.50
2022-09-02T23:26:10.019Z,21.40
2022-09-02T23:28:48.973Z,21.40
2022-09-02T23:31:37.513Z,21.40
2022-09-02T23:34:30.869Z,21.30
2022-09-02T23:37:07.056Z,21.30
2022-09-02T23:39:36.455Z,21.30
2022-09-02T23:42:03.612Z,21.20
2022-09-02T23:44:31.140Z,21.20
2022-09-02T23:47:22.214Z,21.20
2022-09-02T23:50:10.369Z,21.10
2022-09-02T23:53:06.385Z,21.20
2022-09-02T23:56:10.299Z,21.10
2022-09-02T23:58:49.019Z,21.10
